Terminal Aerodrome Forecast
Issued by NWS

Home | Current Version | Previous Version | Text Only | Print | Product List | Glossary On
Versions: 1 2 3 4 5 6 7 8 9 10 11 12 13 14 15
808
FTUS45 KVEF 271120
TAFBIH
TAF
KBIH 271120Z 2712/2812 33010KT P6SM SCT100
     FM271600 34011G19KT P6SM SCT100
     FM272200 33012G20KT P6SM VCSH BKN100
     FM280200 35015G23KT P6SM SCT100
     FM280500 35008KT P6SM SCT100=

USA.gov is the U.S. government's official web portal to all federal, state and local government web resources and services.